Time;durP1;ratioP1;P1;durP2;ratioP2;P2;SDS_P1;SDS_P2;PMS_P1;PMS_P2;Temp;Humidity;BMP_temperature;BMP_pressure;BME280_temperature;BME280_humidity;BME280_pressure;Samples;Min_cycle;Max_cycle;Signal;HPM_P1;HPM_P2
2023/03/30 00:02:05;;;;;;;;;;;;;;;5.88;36.95;100273.44;5093697;28;20370;-41
2023/03/30 00:04:33;;;;;;;;;;;;;;;5.78;37.64;100315.00;5093449;28;19912;-41
2023/03/30 00:06:58;;;;;;;;;;;;;;;6.24;36.93;100326.94;5093529;28;19976;-41
2023/03/30 00:09:31;;;;;;;;;;;;;;;6.19;36.70;100326.59;5093569;28;19954;-41
2023/03/30 00:12:01;;;;;;;;;;;;;;;5.68;37.85;100323.88;5093531;28;19919;-40
2023/03/30 00:14:28;;;;;;;;;;;;;;;5.55;38.09;100320.84;5093379;28;20346;-42
2023/03/30 00:16:54;;;;;;;;;;;;;;;5.46;38.74;100312.06;5093477;28;19919;-40
2023/03/30 00:19:19;;;;;;;;;;;;;;;5.26;38.90;100313.25;5092587;28;19916;-41
2023/03/30 00:21:44;;;;;;;;;;;;;;;5.27;38.30;100314.88;5093376;28;20011;-41
2023/03/30 00:24:10;;;;;;;;;;;;;;;5.51;38.63;100319.50;5092322;28;19920;-41
2023/03/30 00:26:35;;;;;;;;;;;;;;;5.59;37.97;100310.78;5092781;28;19924;-41
2023/03/30 00:29:00;;;;;;;;;;;;;;;5.59;37.90;100313.44;5093008;28;19911;-40
2023/03/30 00:31:26;;;;;;;;;;;;;;;5.46;38.85;100314.69;5093426;28;19970;-41
2023/03/30 00:33:51;;;;;;;;;;;;;;;5.47;39.08;100316.34;5093411;28;19912;-41
2023/03/30 00:36:16;;;;;;;;;;;;;;;5.09;39.49;100320.22;5092884;28;19919;-41
2023/03/30 00:38:42;;;;;;;;;;;;;;;5.12;38.77;100306.69;5092983;28;19944;-41
2023/03/30 00:41:08;;;;;;;;;;;;;;;5.23;39.42;100308.28;5092846;28;20379;-41
2023/03/30 00:43:33;;;;;;;;;;;;;;;5.17;40.21;100307.06;5092938;28;19912;-41
2023/03/30 00:45:59;;;;;;;;;;;;;;;5.21;40.68;100305.78;5092900;28;19970;-41
2023/03/30 00:48:26;;;;;;;;;;;;;;;5.23;39.66;100303.81;5092516;28;20303;-41
2023/03/30 00:51:00;;;;;;;;;;;;;;;5.02;40.99;100301.53;5092993;28;19968;-41
2023/03/30 00:53:42;;;;;;;;;;;;;;;5.33;40.95;100306.38;5092582;28;19939;-40
2023/03/30 00:56:09;;;;;;;;;;;;;;;5.23;41.53;100301.16;5092465;28;19912;-42
2023/03/30 00:58:36;;;;;;;;;;;;;;;5.23;41.37;100308.28;5092384;28;20002;-40
2023/03/30 01:01:03;;;;;;;;;;;;;;;5.06;42.01;100309.97;5092690;28;20311;-40
2023/03/30 01:03:28;;;;;;;;;;;;;;;4.87;41.36;100313.59;5092659;28;19921;-40
2023/03/30 01:05:55;;;;;;;;;;;;;;;5.33;40.55;100310.81;5092582;28;19916;-41
2023/03/30 01:08:22;;;;;;;;;;;;;;;5.14;41.48;100303.91;5092266;28;19959;-40
2023/03/30 01:10:48;;;;;;;;;;;;;;;4.93;41.56;100312.16;5091958;28;20275;-41
2023/03/30 01:13:14;;;;;;;;;;;;;;;5.03;41.46;100319.03;5092395;28;19995;-41
2023/03/30 01:15:47;;;;;;;;;;;;;;;4.86;41.47;100304.88;5092280;28;20026;-41
2023/03/30 01:18:32;;;;;;;;;;;;;;;4.90;41.49;100316.78;5092727;28;19977;-41
2023/03/30 01:21:06;;;;;;;;;;;;;;;5.03;40.84;100313.75;5092269;28;20011;-41
2023/03/30 01:23:54;;;;;;;;;;;;;;;5.01;41.15;100315.72;5091885;28;20361;-41
2023/03/30 01:26:28;;;;;;;;;;;;;;;4.97;42.20;100302.97;5091404;28;20325;-41
2023/03/30 01:28:53;;;;;;;;;;;;;;;5.04;42.24;100307.47;5092049;28;19912;-41
2023/03/30 01:31:38;;;;;;;;;;;;;;;4.82;42.31;100307.97;5092317;28;19958;-41
2023/03/30 01:34:35;;;;;;;;;;;;;;;5.03;42.60;100303.19;5091452;28;19912;-41
2023/03/30 01:37:09;;;;;;;;;;;;;;;4.69;42.37;100308.34;5068092;28;19912;-41
2023/03/30 01:39:44;;;;;;;;;;;;;;;4.61;42.93;100309.13;5092139;28;19974;-41
2023/03/30 01:42:09;;;;;;;;;;;;;;;4.43;42.62;100310.91;5092059;28;19905;-41
2023/03/30 01:44:44;;;;;;;;;;;;;;;4.24;43.32;100315.31;5091646;28;19913;-41
2023/03/30 01:47:25;;;;;;;;;;;;;;;4.45;43.11;100316.84;5091900;28;19916;-41
2023/03/30 01:49:57;;;;;;;;;;;;;;;4.33;43.05;100320.69;5091466;28;19913;-41
2023/03/30 01:52:22;;;;;;;;;;;;;;;4.30;43.50;100317.38;5091858;28;19912;-41
2023/03/30 01:54:50;;;;;;;;;;;;;;;4.26;44.04;100315.19;5091628;28;19912;-41
2023/03/30 01:57:20;;;;;;;;;;;;;;;4.45;44.01;100319.50;5091456;28;20030;-41
2023/03/30 01:59:51;;;;;;;;;;;;;;;4.45;44.02;100317.66;5091436;28;19919;-41
2023/03/30 02:02:17;;;;;;;;;;;;;;;4.40;44.09;100319.09;5091658;28;20379;-41
2023/03/30 02:04:44;;;;;;;;;;;;;;;4.43;43.71;100313.53;5091648;28;19923;-41
2023/03/30 02:07:15;;;;;;;;;;;;;;;4.46;43.81;100314.06;5090901;28;19966;-41
2023/03/30 02:09:41;;;;;;;;;;;;;;;4.40;44.07;100311.19;5089891;28;19912;-41
2023/03/30 02:12:08;;;;;;;;;;;;;;;4.41;43.74;100318.13;5091496;28;19922;-41
2023/03/30 02:14:36;;;;;;;;;;;;;;;4.47;43.81;100314.91;5091434;28;19920;-41
2023/03/30 02:17:21;;;;;;;;;;;;;;;4.52;44.40;100317.91;5091774;28;19961;-41
2023/03/30 02:19:47;;;;;;;;;;;;;;;4.41;44.54;100316.31;5091568;28;19920;-41
2023/03/30 02:22:14;;;;;;;;;;;;;;;4.67;44.51;100321.69;5090638;28;20295;-40
2023/03/30 02:24:41;;;;;;;;;;;;;;;4.44;44.29;100315.22;5091602;28;19939;-41
2023/03/30 02:27:06;;;;;;;;;;;;;;;4.53;44.87;100316.91;5103457;28;20553;-41
2023/03/30 02:29:33;;;;;;;;;;;;;;;4.61;44.91;100327.56;5091792;28;19918;-41
2023/03/30 02:31:59;;;;;;;;;;;;;;;4.43;44.40;100324.09;5091215;28;20352;-41
2023/03/30 02:34:43;;;;;;;;;;;;;;;4.23;44.91;100324.22;5090826;28;19984;-41
2023/03/30 02:37:29;;;;;;;;;;;;;;;4.25;44.55;100330.16;5091372;28;19961;-41
2023/03/30 02:40:00;;;;;;;;;;;;;;;4.21;44.34;100336.72;5091112;28;19916;-41
2023/03/30 02:42:37;;;;;;;;;;;;;;;4.35;43.80;100331.91;5091281;28;19978;-41
2023/03/30 02:45:17;;;;;;;;;;;;;;;4.17;44.19;100335.34;5091098;28;19912;-41
2023/03/30 02:47:51;;;;;;;;;;;;;;;4.05;43.64;100334.69;5092191;28;19923;-41
2023/03/30 02:50:29;;;;;;;;;;;;;;;3.75;44.65;100337.63;5095252;28;19916;-41
2023/03/30 02:53:06;;;;;;;;;;;;;;;3.77;45.02;100348.81;5094965;28;20257;-41
2023/03/30 02:55:40;;;;;;;;;;;;;;;3.84;45.04;100344.66;5094897;28;19912;-41
2023/03/30 02:58:06;;;;;;;;;;;;;;;3.92;44.40;100342.97;5094675;28;20372;-41
2023/03/30 03:00:43;;;;;;;;;;;;;;;4.01;44.70;100345.69;5094733;28;20061;-41
2023/03/30 03:03:22;;;;;;;;;;;;;;;3.62;45.13;100353.75;5095054;28;20004;-41
2023/03/30 03:05:52;;;;;;;;;;;;;;;3.56;45.77;100347.25;5094527;28;19919;-41
2023/03/30 03:08:18;;;;;;;;;;;;;;;3.89;46.13;100348.50;5094343;28;20011;-41
2023/03/30 03:10:43;;;;;;;;;;;;;;;3.97;45.37;100333.78;5094657;28;19939;-41
2023/03/30 03:13:09;;;;;;;;;;;;;;;3.96;45.19;100334.75;5094191;28;19916;-41
2023/03/30 03:15:36;;;;;;;;;;;;;;;3.61;46.17;100345.00;5094776;28;19923;-42
2023/03/30 03:18:02;;;;;;;;;;;;;;;3.69;46.42;100344.28;5092106;28;20326;-41
2023/03/30 03:20:29;;;;;;;;;;;;;;;3.75;46.37;100348.16;5086336;28;19920;-41
2023/03/30 03:22:54;;;;;;;;;;;;;;;3.81;46.68;100342.28;5093229;28;19942;-41
2023/03/30 03:25:20;;;;;;;;;;;;;;;3.82;50.02;100341.34;5089951;28;20331;-41
2023/03/30 03:27:46;;;;;;;;;;;;;;;3.72;47.53;100349.28;5091072;28;19920;-41
2023/03/30 03:30:11;;;;;;;;;;;;;;;3.83;47.95;100335.94;5092854;28;20006;-36
2023/03/30 03:32:36;;;;;;;;;;;;;;;3.82;47.54;100344.78;5093319;28;19912;-36
2023/03/30 03:35:02;;;;;;;;;;;;;;;3.53;48.34;100358.06;5092253;28;19989;-36
2023/03/30 03:37:27;;;;;;;;;;;;;;;3.55;48.00;100358.75;5092963;28;19947;-36
2023/03/30 03:39:52;;;;;;;;;;;;;;;2.98;48.38;100365.75;5093207;28;19944;-42
2023/03/30 03:42:17;;;;;;;;;;;;;;;2.58;50.10;100372.78;5093338;28;20379;-40
2023/03/30 03:44:43;;;;;;;;;;;;;;;2.65;50.40;100376.53;5093230;28;19924;-40
2023/03/30 03:47:08;;;;;;;;;;;;;;;2.91;49.11;100384.72;5093264;28;19951;-40
2023/03/30 03:49:33;;;;;;;;;;;;;;;2.88;49.40;100379.72;5094053;28;19912;-40
2023/03/30 03:51:59;;;;;;;;;;;;;;;3.08;49.74;100385.81;5093971;28;19919;-40
2023/03/30 03:54:24;;;;;;;;;;;;;;;3.30;49.86;100381.25;5093886;28;19994;-40
2023/03/30 03:56:50;;;;;;;;;;;;;;;3.47;49.08;100384.94;5093870;28;19912;-40
2023/03/30 03:59:16;;;;;;;;;;;;;;;3.53;49.19;100382.56;5092341;28;20287;-40
2023/03/30 04:01:41;;;;;;;;;;;;;;;3.46;49.17;100388.53;5093563;28;20394;-40
2023/03/30 04:04:06;;;;;;;;;;;;;;;3.43;49.76;100399.38;5093620;28;20371;-40
2023/03/30 04:06:32;;;;;;;;;;;;;;;3.15;50.37;100396.63;5093649;28;19916;-39
2023/03/30 04:08:57;;;;;;;;;;;;;;;3.27;49.56;100389.41;5093499;28;20253;-40
2023/03/30 04:11:23;;;;;;;;;;;;;;;3.29;49.21;100390.09;5093555;28;19912;-40
2023/03/30 04:13:48;;;;;;;;;;;;;;;3.61;57.78;100387.13;5093384;28;20011;-40
2023/03/30 04:16:14;;;;;;;;;;;;;;;3.64;50.03;100391.28;5093650;28;19919;-39
2023/03/30 04:18:40;;;;;;;;;;;;;;;3.61;51.13;100394.19;5091983;28;20385;-41
2023/03/30 04:21:06;;;;;;;;;;;;;;;3.76;50.62;100390.13;5093468;28;19972;-41
2023/03/30 04:23:32;;;;;;;;;;;;;;;3.94;50.68;100392.00;5092289;28;20283;-40
2023/03/30 04:26:00;;;;;;;;;;;;;;;4.22;48.79;100390.22;5093271;28;20007;-40
2023/03/30 04:28:28;;;;;;;;;;;;;;;4.11;48.31;100391.25;5092925;28;19927;-41
2023/03/30 04:30:57;;;;;;;;;;;;;;;3.79;48.93;100397.75;5093143;28;19912;-40
2023/03/30 04:33:23;;;;;;;;;;;;;;;4.04;48.27;100403.34;5092964;28;19912;-40
2023/03/30 04:35:48;;;;;;;;;;;;;;;4.26;47.03;100404.75;5092225;28;20261;-40
2023/03/30 04:38:21;;;;;;;;;;;;;;;4.50;46.03;100405.03;5092894;28;19946;-40
2023/03/30 04:40:50;;;;;;;;;;;;;;;4.50;45.88;100405.03;5092757;28;19933;-40
2023/03/30 04:43:18;;;;;;;;;;;;;;;4.63;45.22;100409.16;5092087;28;20348;-40
2023/03/30 04:45:54;;;;;;;;;;;;;;;5.70;62.45;100423.25;5092022;28;19912;-42
2023/03/30 04:48:20;;;;;;;;;;;;;;;6.20;44.22;100417.28;5092514;28;19943;-40
2023/03/30 04:50:46;;;;;;;;;;;;;;;5.79;43.94;100431.06;5092559;28;19939;-40
2023/03/30 04:53:13;;;;;;;;;;;;;;;5.57;44.45;100427.13;5092293;28;19912;-40
2023/03/30 04:55:39;;;;;;;;;;;;;;;5.54;43.54;100424.81;5092599;28;20032;-35
2023/03/30 04:58:04;;;;;;;;;;;;;;;5.94;42.52;100422.56;5092630;28;20465;-36
2023/03/30 05:00:30;;;;;;;;;;;;;;;6.67;41.42;100432.66;5092372;28;20407;-34
2023/03/30 05:02:55;;;;;;;;;;;;;;;7.76;39.97;100442.16;5084062;28;19923;-36
2023/03/30 05:05:20;;;;;;;;;;;;;;;8.09;38.11;100439.44;5083965;28;19922;-34
2023/03/30 05:07:46;;;;;;;;;;;;;;;8.20;38.19;100438.25;5092578;28;20237;-36
2023/03/30 05:10:11;;;;;;;;;;;;;;;8.84;36.78;100446.09;5092059;28;19912;-36
2023/03/30 05:12:37;;;;;;;;;;;;;;;9.44;35.18;100438.38;5092504;28;19912;-36
2023/03/30 05:15:02;;;;;;;;;;;;;;;9.75;33.92;100435.63;5091973;28;19999;-35
2023/03/30 05:17:27;;;;;;;;;;;;;;;10.35;33.55;100441.81;5091495;28;19913;-36
2023/03/30 05:19:53;;;;;;;;;;;;;;;10.91;32.91;100443.91;5091423;28;19923;-36
2023/03/30 05:22:18;;;;;;;;;;;;;;;11.45;32.20;100447.91;5091730;28;19916;-36
2023/03/30 05:24:44;;;;;;;;;;;;;;;12.03;31.06;100453.06;5092172;28;19915;-36
2023/03/30 05:27:09;;;;;;;;;;;;;;;12.68;30.59;100453.63;5092074;28;19916;-36
2023/03/30 05:29:34;;;;;;;;;;;;;;;13.10;29.40;100457.84;5091138;28;20412;-35
2023/03/30 05:32:00;;;;;;;;;;;;;;;13.63;28.68;100451.75;5091030;28;20014;-37
2023/03/30 05:34:26;;;;;;;;;;;;;;;14.18;28.80;100453.31;5091296;28;19959;-37
2023/03/30 05:36:51;;;;;;;;;;;;;;;14.39;27.90;100450.41;5091461;28;19919;-36
2023/03/30 05:39:16;;;;;;;;;;;;;;;14.81;26.43;100450.88;5091251;28;19981;-36
2023/03/30 05:41:42;;;;;;;;;;;;;;;14.95;26.47;100450.78;5091211;28;19981;-36
2023/03/30 05:44:07;;;;;;;;;;;;;;;14.71;26.94;100452.34;5091009;28;19912;-35
2023/03/30 05:46:32;;;;;;;;;;;;;;;15.09;26.48;100452.34;5091044;28;20005;-36
2023/03/30 05:48:58;;;;;;;;;;;;;;;15.69;26.57;100451.06;5091248;28;20024;-36
2023/03/30 05:51:23;;;;;;;;;;;;;;;16.18;25.23;100454.75;5091168;28;19947;-36
2023/03/30 05:53:48;;;;;;;;;;;;;;;16.32;24.96;100455.44;5090891;28;19995;-36
2023/03/30 05:56:14;;;;;;;;;;;;;;;16.97;24.71;100446.78;5091132;28;20003;-36
2023/03/30 05:58:39;;;;;;;;;;;;;;;17.43;23.88;100445.25;5091485;28;19912;-35
2023/03/30 06:01:05;;;;;;;;;;;;;;;17.40;24.09;100448.41;5091355;28;20391;-35
2023/03/30 06:03:30;;;;;;;;;;;;;;;17.64;24.04;100446.56;5091396;28;19919;-36
2023/03/30 06:05:56;;;;;;;;;;;;;;;17.55;23.71;100451.50;5090899;28;19989;-36
2023/03/30 06:08:21;;;;;;;;;;;;;;;16.76;24.70;100456.16;5090514;28;20007;-36
2023/03/30 06:10:53;;;;;;;;;;;;;;;17.45;24.36;100456.63;5091033;28;20020;-36
2023/03/30 06:13:19;;;;;;;;;;;;;;;17.84;24.29;100459.75;5090774;28;20007;-37
2023/03/30 06:15:45;;;;;;;;;;;;;;;18.80;22.45;100461.19;5090415;28;20011;-37
2023/03/30 06:18:10;;;;;;;;;;;;;;;18.31;22.79;100464.25;5088993;28;19958;-36
2023/03/30 06:20:35;;;;;;;;;;;;;;;18.69;22.70;100466.38;5088920;28;20020;-36
2023/03/30 06:23:00;;;;;;;;;;;;;;;18.23;23.44;100472.69;5090594;28;20375;-37
2023/03/30 06:25:26;;;;;;;;;;;;;;;18.71;22.56;100469.63;5093384;28;20424;-36
2023/03/30 06:27:51;;;;;;;;;;;;;;;19.34;22.05;100472.44;5094183;28;20010;-36
2023/03/30 06:30:16;;;;;;;;;;;;;;;19.79;21.48;100476.19;5094513;28;19980;-36
2023/03/30 06:32:42;;;;;;;;;;;;;;;19.98;21.54;100477.53;5094583;28;19912;-35
2023/03/30 06:35:07;;;;;;;;;;;;;;;19.51;22.66;100483.25;5094384;28;20010;-37
2023/03/30 06:37:35;;;;;;;;;;;;;;;20.27;21.17;100470.09;5094253;28;19935;-36
2023/03/30 06:40:00;;;;;;;;;;;;;;;20.78;21.30;100475.34;5094492;28;20376;-36
2023/03/30 06:42:26;;;;;;;;;;;;;;;21.34;21.29;100477.78;5094143;28;20037;-36
2023/03/30 06:44:51;;;;;;;;;;;;;;;21.55;21.19;100469.88;5094219;28;19911;-36
2023/03/30 06:47:18;;;;;;;;;;;;;;;22.06;20.27;100467.53;5094252;28;20300;-35
2023/03/30 06:49:43;;;;;;;;;;;;;;;22.11;20.19;100469.47;5093911;28;19912;-36
2023/03/30 06:52:09;;;;;;;;;;;;;;;22.10;20.25;100479.47;5093995;28;19919;-37
2023/03/30 06:54:34;;;;;;;;;;;;;;;22.68;19.49;100475.97;5094048;28;20018;-36
2023/03/30 06:57:00;;;;;;;;;;;;;;;22.63;19.28;100469.44;5093925;28;19916;-36
2023/03/30 06:59:26;;;;;;;;;;;;;;;22.41;19.29;100475.06;5093697;28;20532;-36
2023/03/30 07:01:51;;;;;;;;;;;;;;;22.29;19.55;100473.63;5093882;28;20616;-36
2023/03/30 07:04:17;;;;;;;;;;;;;;;22.42;19.45;100473.16;5093435;28;19916;-35
2023/03/30 07:06:42;;;;;;;;;;;;;;;22.09;19.53;100472.44;5093518;28;20368;-36
2023/03/30 07:09:08;;;;;;;;;;;;;;;21.73;20.67;100466.78;5093784;28;19916;-36
2023/03/30 07:11:33;;;;;;;;;;;;;;;22.02;20.12;100472.63;5093875;28;19964;-35
2023/03/30 07:14:00;;;;;;;;;;;;;;;21.95;20.25;100463.94;5093740;28;19912;-36
2023/03/30 07:16:25;;;;;;;;;;;;;;;20.55;21.39;100467.47;5093805;28;20049;-36
2023/03/30 07:18:51;;;;;;;;;;;;;;;20.81;21.28;100468.59;5093706;28;19981;-36
2023/03/30 07:21:17;;;;;;;;;;;;;;;21.70;20.83;100463.75;5093642;28;19919;-35
2023/03/30 07:23:42;;;;;;;;;;;;;;;21.39;21.46;100464.31;5093072;28;20114;-36
2023/03/30 07:26:08;;;;;;;;;;;;;;;20.84;22.14;100470.81;5093447;28;19923;-35
2023/03/30 07:28:33;;;;;;;;;;;;;;;20.77;22.24;100457.50;5093648;28;19916;-37
2023/03/30 07:31:04;;;;;;;;;;;;;;;21.71;21.64;100457.28;5092894;28;20314;-36
2023/03/30 07:33:30;;;;;;;;;;;;;;;21.50;22.19;100464.44;5092630;28;19912;-35
2023/03/30 07:35:55;;;;;;;;;;;;;;;21.94;21.72;100459.59;5093047;28;19923;-36
2023/03/30 07:38:21;;;;;;;;;;;;;;;21.78;21.69;100449.72;5092789;28;19965;-37
2023/03/30 07:40:46;;;;;;;;;;;;;;;22.29;21.54;100458.19;5093145;28;19951;-36
2023/03/30 07:43:11;;;;;;;;;;;;;;;23.36;20.56;100457.69;5093014;28;19916;-36
2023/03/30 07:45:36;;;;;;;;;;;;;;;23.64;20.37;100457.38;5092927;28;19912;-35
2023/03/30 07:48:02;;;;;;;;;;;;;;;24.23;19.81;100458.66;5092790;28;19916;-36
2023/03/30 07:50:28;;;;;;;;;;;;;;;23.25;20.62;100456.03;5092623;28;20313;-35
2023/03/30 07:52:53;;;;;;;;;;;;;;;23.65;20.26;100459.03;5092643;28;19912;-37
2023/03/30 07:55:18;;;;;;;;;;;;;;;23.02;20.78;100447.28;5092748;28;19969;-38
2023/03/30 07:57:45;;;;;;;;;;;;;;;23.10;20.78;100453.31;5093363;28;19913;-35
2023/03/30 08:00:12;;;;;;;;;;;;;;;23.31;20.64;100460.38;5092951;28;19919;-37
2023/03/30 08:02:38;;;;;;;;;;;;;;;24.07;20.05;100455.97;5092839;28;20477;-35
2023/03/30 08:05:03;;;;;;;;;;;;;;;24.53;19.61;100458.53;5092855;28;19995;-36
2023/03/30 08:07:29;;;;;;;;;;;;;;;23.05;20.25;100458.72;5090881;28;20001;-35
2023/03/30 08:09:54;;;;;;;;;;;;;;;22.96;20.87;100461.94;5092590;28;19934;-36
2023/03/30 08:12:19;;;;;;;;;;;;;;;23.23;20.47;100464.44;5092671;28;19943;-36
2023/03/30 08:14:45;;;;;;;;;;;;;;;24.02;19.92;100449.75;5092325;28;20123;-36
2023/03/30 08:17:11;;;;;;;;;;;;;;;24.38;19.56;100450.44;5092318;28;19912;-36
2023/03/30 08:19:36;;;;;;;;;;;;;;;23.21;20.27;100452.25;5092060;28;19973;-36
2023/03/30 08:22:02;;;;;;;;;;;;;;;22.72;21.34;100448.03;5092371;28;19912;-34
2023/03/30 08:24:27;;;;;;;;;;;;;;;22.98;20.75;100451.63;5092428;28;20432;-35
2023/03/30 08:26:52;;;;;;;;;;;;;;;23.67;20.16;100452.22;5092555;28;20011;-35
2023/03/30 08:29:17;;;;;;;;;;;;;;;23.99;19.84;100440.25;5092433;28;20096;-35
2023/03/30 08:31:44;;;;;;;;;;;;;;;24.12;19.40;100436.09;5092266;28;19912;-36
2023/03/30 08:34:10;;;;;;;;;;;;;;;24.56;19.22;100438.97;5092230;28;19916;-36
2023/03/30 08:36:36;;;;;;;;;;;;;;;24.87;19.23;100436.06;5092449;28;19916;-36
2023/03/30 08:39:01;;;;;;;;;;;;;;;23.34;20.44;100426.44;5092219;28;20364;-37
2023/03/30 08:41:26;;;;;;;;;;;;;;;24.24;19.83;100428.47;5092117;28;19912;-36
2023/03/30 08:43:57;;;;;;;;;;;;;;;23.97;20.15;100418.78;5092244;28;19919;-36
2023/03/30 08:46:22;;;;;;;;;;;;;;;22.92;20.78;100413.88;5091542;28;20253;-36
2023/03/30 08:48:50;;;;;;;;;;;;;;;23.08;21.04;100415.56;5091971;28;19912;-35
2023/03/30 08:51:22;;;;;;;;;;;;;;;22.31;21.81;100398.28;5092080;28;19922;-35
2023/03/30 08:53:51;;;;;;;;;;;;;;;22.37;22.22;100410.75;5091418;28;19912;-36
2023/03/30 08:56:20;;;;;;;;;;;;;;;23.16;21.88;100403.38;5091239;28;19929;-35
2023/03/30 08:58:54;;;;;;;;;;;;;;;23.44;20.99;100402.00;5091412;28;19939;-35
2023/03/30 09:01:46;;;;;;;;;;;;;;;23.15;20.28;100399.84;5091344;28;19923;-36
2023/03/30 09:04:15;;;;;;;;;;;;;;;22.94;21.18;100399.00;5089201;28;20033;-35
2023/03/30 09:06:47;;;;;;;;;;;;;;;23.11;21.53;100389.78;5091676;28;20015;-35
2023/03/30 09:09:14;;;;;;;;;;;;;;;23.16;20.61;100389.78;5091307;28;20361;-35
2023/03/30 09:11:40;;;;;;;;;;;;;;;22.58;21.33;100384.53;5091465;28;19931;-35
2023/03/30 09:14:06;;;;;;;;;;;;;;;22.54;21.12;100380.72;5091540;28;19916;-36
2023/03/30 09:16:39;;;;;;;;;;;;;;;21.90;21.92;100377.22;5091190;28;19912;-34
2023/03/30 09:19:11;;;;;;;;;;;;;;;21.38;22.42;100370.66;5091283;28;19928;-36
2023/03/30 09:21:37;;;;;;;;;;;;;;;21.80;22.05;100360.88;5091052;28;19923;-34
2023/03/30 09:24:10;;;;;;;;;;;;;;;20.65;23.03;100365.69;5090993;28;19961;-35
2023/03/30 09:26:44;;;;;;;;;;;;;;;20.42;22.37;100358.66;5090871;28;19927;-36
2023/03/30 09:29:09;;;;;;;;;;;;;;;20.82;21.76;100360.16;5090893;28;19935;-36
2023/03/30 09:31:39;;;;;;;;;;;;;;;21.11;20.74;100359.06;5091533;28;20263;-36
2023/03/30 09:34:10;;;;;;;;;;;;;;;21.14;21.20;100353.16;5091330;28;20037;-36
2023/03/30 09:37:05;;;;;;;;;;;;;;;21.00;20.67;100355.44;5091193;28;19916;-36
2023/03/30 09:39:32;;;;;;;;;;;;;;;21.51;21.27;100342.31;5086007;28;19948;-36
2023/03/30 09:42:10;;;;;;;;;;;;;;;22.13;20.92;100348.84;5091186;28;19919;-37
2023/03/30 09:44:39;;;;;;;;;;;;;;;21.65;21.23;100342.69;5090919;28;19919;-36
2023/03/30 09:47:23;;;;;;;;;;;;;;;21.98;20.43;100343.38;5091141;28;20339;-36
2023/03/30 09:49:54;;;;;;;;;;;;;;;22.20;19.58;100340.47;5090918;28;20295;-37
2023/03/30 09:52:24;;;;;;;;;;;;;;;21.65;18.19;100337.28;5090782;28;19912;-36
2023/03/30 09:54:49;;;;;;;;;;;;;;;22.06;17.43;100337.44;5090737;28;19919;-36
2023/03/30 09:57:25;;;;;;;;;;;;;;;19.77;20.31;100341.41;5089995;28;19916;-34
2023/03/30 09:59:54;;;;;;;;;;;;;;;20.91;19.81;100327.25;5090360;28;19920;-36
2023/03/30 10:02:20;;;;;;;;;;;;;;;20.16;20.17;100321.63;5090820;28;19912;-36
2023/03/30 10:04:52;;;;;;;;;;;;;;;20.69;19.27;100310.03;5090324;28;20326;-36
2023/03/30 10:07:37;;;;;;;;;;;;;;;19.33;20.33;100311.63;5090679;28;20023;-36
2023/03/30 10:10:14;;;;;;;;;;;;;;;20.91;19.70;100308.31;5090366;28;19912;-35
2023/03/30 10:12:39;;;;;;;;;;;;;;;22.02;18.79;100296.50;5090955;28;19916;-36
2023/03/30 10:15:05;;;;;;;;;;;;;;;21.70;19.62;100293.13;5090267;28;19969;-36
2023/03/30 10:17:31;;;;;;;;;;;;;;;21.62;19.18;100289.03;5090338;28;20011;-36
2023/03/30 10:20:15;;;;;;;;;;;;;;;22.02;18.98;100287.56;5090136;28;19927;-35
2023/03/30 10:22:50;;;;;;;;;;;;;;;21.25;20.21;100290.72;5090437;28;19920;-35
2023/03/30 10:25:37;;;;;;;;;;;;;;;21.47;20.86;100287.88;5090485;28;19916;-37
2023/03/30 10:28:03;;;;;;;;;;;;;;;22.22;20.23;100286.84;5090388;28;19923;-37
2023/03/30 10:30:29;;;;;;;;;;;;;;;22.03;20.68;100289.22;5090273;28;19912;-36
2023/03/30 10:32:56;;;;;;;;;;;;;;;21.77;20.04;100280.19;5090250;28;19923;-37
2023/03/30 10:35:26;;;;;;;;;;;;;;;22.06;20.11;100278.63;5090649;28;19912;-37
2023/03/30 10:37:54;;;;;;;;;;;;;;;21.99;19.47;100277.25;5090502;28;19912;-35
2023/03/30 10:40:31;;;;;;;;;;;;;;;22.15;20.16;100270.00;5090261;28;20073;-36
2023/03/30 10:42:57;;;;;;;;;;;;;;;21.60;20.00;100264.94;5090125;28;19916;-37
2023/03/30 10:45:41;;;;;;;;;;;;;;;20.83;20.12;100266.34;5090419;28;19919;-35
2023/03/30 10:48:25;;;;;;;;;;;;;;;20.96;19.50;100255.09;5090217;28;19920;-36
2023/03/30 10:51:08;;;;;;;;;;;;;;;20.18;20.47;100260.03;5090062;28;19912;-37
2023/03/30 10:53:39;;;;;;;;;;;;;;;19.88;21.57;100258.66;5090239;28;19956;-37
2023/03/30 10:56:14;;;;;;;;;;;;;;;20.80;20.81;100253.31;5090387;28;20014;-37
2023/03/30 10:58:55;;;;;;;;;;;;;;;20.87;21.00;100240.41;5089788;28;19911;-37
2023/03/30 11:01:48;;;;;;;;;;;;;;;21.03;20.69;100230.50;5088631;28;19965;-37
2023/03/30 11:04:32;;;;;;;;;;;;;;;21.65;19.76;100227.03;5084658;28;19916;-37
2023/03/30 11:06:58;;;;;;;;;;;;;;;21.65;20.40;100224.34;5090509;28;19923;-36
2023/03/30 11:09:30;;;;;;;;;;;;;;;22.59;19.97;100216.09;5092857;28;19912;-36
2023/03/30 11:12:00;;;;;;;;;;;;;;;22.74;19.94;100212.56;5090908;28;19963;-36
2023/03/30 11:14:40;;;;;;;;;;;;;;;22.41;20.68;100208.53;5093576;28;19912;-38
2023/03/30 11:17:10;;;;;;;;;;;;;;;22.53;20.80;100205.56;5091158;28;19920;-35
2023/03/30 11:19:38;;;;;;;;;;;;;;;22.43;21.33;100209.09;5094047;28;19913;-36
2023/03/30 11:22:10;;;;;;;;;;;;;;;22.57;20.83;100198.50;5093787;28;19912;-37
2023/03/30 11:24:37;;;;;;;;;;;;;;;23.56;20.34;100192.56;5093809;28;20316;-37
2023/03/30 11:27:12;;;;;;;;;;;;;;;23.53;20.52;100191.22;5091661;28;19923;-36
2023/03/30 11:29:50;;;;;;;;;;;;;;;22.75;20.87;100184.38;5092769;28;19927;-41
2023/03/30 11:32:35;;;;;;;;;;;;;;;23.10;20.52;100179.19;5093545;28;20263;-40
2023/03/30 11:35:01;;;;;;;;;;;;;;;22.12;20.02;100178.38;5093182;28;19961;-40
2023/03/30 11:37:32;;;;;;;;;;;;;;;22.25;20.42;100165.13;5092734;28;19924;-41
2023/03/30 11:40:18;;;;;;;;;;;;;;;22.24;20.33;100173.53;5092984;28;19984;-43
2023/03/30 11:42:43;;;;;;;;;;;;;;;21.67;19.09;100176.13;5091584;28;19912;-40
2023/03/30 11:45:17;;;;;;;;;;;;;;;21.60;19.09;100163.94;5092889;28;19912;-42
2023/03/30 11:47:42;;;;;;;;;;;;;;;22.49;18.39;100167.31;5092535;28;20380;-41
2023/03/30 11:50:20;;;;;;;;;;;;;;;22.70;19.18;100164.59;5092837;28;19912;-41
2023/03/30 11:52:48;;;;;;;;;;;;;;;22.35;20.82;100153.50;5092978;28;19965;-41
2023/03/30 11:55:22;;;;;;;;;;;;;;;21.89;21.02;100147.19;5090129;28;19912;-40
2023/03/30 11:58:06;;;;;;;;;;;;;;;22.60;20.01;100147.25;5091672;28;19920;-41
2023/03/30 12:00:42;;;;;;;;;;;;;;;22.56;20.17;100148.03;5091555;28;19955;-40
2023/03/30 12:03:25;;;;;;;;;;;;;;;22.63;19.73;100141.25;5092511;28;19912;-41
2023/03/30 12:06:09;;;;;;;;;;;;;;;22.41;19.68;100144.28;5093061;28;20029;-41
2023/03/30 12:08:53;;;;;;;;;;;;;;;22.71;19.32;100133.66;5092910;28;19916;-42
2023/03/30 12:11:37;;;;;;;;;;;;;;;23.13;19.18;100136.00;5092762;28;20259;-41
2023/03/30 12:14:22;;;;;;;;;;;;;;;22.68;19.40;100126.88;5092858;28;19935;-40
2023/03/30 12:16:50;;;;;;;;;;;;;;;22.54;19.75;100129.34;5092621;28;19912;-41
2023/03/30 12:19:21;;;;;;;;;;;;;;;22.38;20.09;100122.31;5092736;28;19912;-41
2023/03/30 12:21:57;;;;;;;;;;;;;;;23.17;19.00;100112.66;5091996;28;20435;-40
2023/03/30 12:24:34;;;;;;;;;;;;;;;23.61;19.10;100117.28;5092466;28;19996;-41
2023/03/30 12:26:59;;;;;;;;;;;;;;;22.71;19.10;100106.53;5092419;28;19916;-41
2023/03/30 12:29:41;;;;;;;;;;;;;;;22.64;19.24;100107.63;5091894;28;20300;-44
2023/03/30 12:32:17;;;;;;;;;;;;;;;22.55;18.94;100094.91;5091320;28;19992;-40
2023/03/30 12:34:43;;;;;;;;;;;;;;;22.87;18.79;100097.25;5092298;28;20342;-40
2023/03/30 12:37:25;;;;;;;;;;;;;;;22.77;19.21;100095.41;5092084;28;19919;-41
2023/03/30 12:40:05;;;;;;;;;;;;;;;22.75;20.13;100094.03;5091821;28;20299;-41
2023/03/30 12:42:34;;;;;;;;;;;;;;;23.96;19.52;100079.31;5091964;28;19916;-40
2023/03/30 12:45:02;;;;;;;;;;;;;;;24.18;18.91;100081.59;5091387;28;19912;-42
2023/03/30 12:47:42;;;;;;;;;;;;;;;23.63;19.58;100081.72;5092037;28;20043;-42
2023/03/30 12:50:11;;;;;;;;;;;;;;;22.88;20.49;100084.50;5091703;28;19916;-41
2023/03/30 12:52:42;;;;;;;;;;;;;;;23.20;20.13;100081.41;5091670;28;19916;-40